Time;durP1;ratioP1;P1;durP2;ratioP2;P2;SDS_P1;SDS_P2;PMS_P1;PMS_P2;Temp;Humidity;BMP_temperature;BMP_pressure;BME280_temperature;BME280_humidity;BME280_pressure;Samples;Min_cycle;Max_cycle;Signal;HPM_P1;HPM_P2
2022/07/03 00:03:22;;;;;;;14.02;10.25;;;;;;;;;;5111742;27;20427;-72
2022/07/03 00:07:07;;;;;;;13.63;9.52;;;;;;;;;;5111498;27;20396;-72
2022/07/03 00:09:33;;;;;;;14.27;9.98;;;;;;;;;;5110939;28;20395;-72
2022/07/03 00:11:59;;;;;;;11.75;8.98;;;;;;;;;;5111304;28;20115;-71
2022/07/03 00:16:17;;;;;;;15.50;10.48;;;;;;;;;;5111040;27;20476;-71
2022/07/03 00:18:43;;;;;;;14.65;10.05;;;;;;;;;;5109996;28;20035;-72
2022/07/03 00:21:10;;;;;;;11.50;9.48;;;;;;;;;;5111423;28;20024;-71
2022/07/03 00:23:47;;;;;;;16.17;10.82;;;;;;;;;;5111064;28;20367;-71
2022/07/03 00:27:35;;;;;;;13.88;11.38;;;;;;;;;;5111529;27;20474;-71
2022/07/03 00:30:03;;;;;;;14.35;10.20;;;;;;;;;;5110959;28;20103;-72
2022/07/03 00:32:29;;;;;;;12.30;10.00;;;;;;;;;;5111313;28;20034;-72
2022/07/03 00:34:57;;;;;;;15.38;10.18;;;;;;;;;;5109995;28;20024;-72
2022/07/03 00:37:24;;;;;;;13.13;9.43;;;;;;;;;;5110814;28;20016;-73
2022/07/03 00:42:00;;;;;;;12.10;9.15;;;;;;;;;;5112040;27;20392;-72
2022/07/03 00:44:28;;;;;;;13.40;10.25;;;;;;;;;;5109683;28;20111;-72
2022/07/03 00:46:55;;;;;;;13.98;10.63;;;;;;;;;;5111294;28;20081;-72
2022/07/03 00:49:23;;;;;;;16.58;10.80;;;;;;;;;;5109975;28;20032;-71
2022/07/03 00:51:52;;;;;;;13.00;9.57;;;;;;;;;;5109560;28;20127;-71
2022/07/03 00:54:20;;;;;;;13.05;9.25;;;;;;;;;;5111373;28;20031;-72
2022/07/03 00:56:50;;;;;;;13.57;10.18;;;;;;;;;;5111067;28;20032;-71
2022/07/03 00:59:16;;;;;;;13.20;11.05;;;;;;;;;;5110991;28;20024;-71
2022/07/03 01:01:42;;;;;;;16.73;12.20;;;;;;;;;;5110923;28;20051;-72
2022/07/03 01:04:59;;;;;;;15.27;11.45;;;;;;;;;;5111398;27;20988;-72
2022/07/03 01:07:41;;;;;;;13.43;11.05;;;;;;;;;;5110046;28;20024;-71
2022/07/03 01:11:22;;;;;;;13.80;10.55;;;;;;;;;;5111704;27;20814;-71
2022/07/03 01:14:16;;;;;;;12.73;9.70;;;;;;;;;;5111379;28;20028;-71
2022/07/03 01:16:58;;;;;;;12.15;9.13;;;;;;;;;;5111366;28;20103;-71
2022/07/03 01:23:42;;;;;;;13.05;9.25;;;;;;;;;;5111538;27;20473;-71
2022/07/03 01:28:02;;;;;;;18.17;10.15;;;;;;;;;;5111552;27;20397;-71
2022/07/03 01:30:30;;;;;;;12.05;9.13;;;;;;;;;;5111367;28;20067;-71
2022/07/03 01:32:56;;;;;;;13.50;9.02;;;;;;;;;;5110894;28;20024;-71
2022/07/03 01:37:30;;;;;;;13.32;8.32;;;;;;;;;;5152642;27;20121;-72
2022/07/03 01:39:57;;;;;;;10.68;7.53;;;;;;;;;;5131681;28;20031;-72
2022/07/03 01:42:24;;;;;;;10.27;7.03;;;;;;;;;;5131816;28;20379;-71
2022/07/03 01:44:53;;;;;;;10.93;7.88;;;;;;;;;;5131803;28;20023;-71
2022/07/03 01:50:11;;;;;;;10.70;7.88;;;;;;;;;;5112188;27;20388;-71
2022/07/03 01:52:40;;;;;;;10.45;7.10;;;;;;;;;;5111544;28;20061;-71
2022/07/03 01:57:11;;;;;;;8.40;5.60;;;;;;;;;;5112159;27;20753;-73
2022/07/03 02:00:11;;;;;;;9.27;5.97;;;;;;;;;;5111654;27;20396;-72
2022/07/03 02:02:43;;;;;;;9.07;5.97;;;;;;;;;;5109712;28;20563;-72
2022/07/03 02:05:15;;;;;;;9.73;6.03;;;;;;;;;;5110143;28;20492;-72
2022/07/03 02:09:52;;;;;;;12.02;5.97;;;;;;;;;;5111689;27;20422;-71
2022/07/03 02:12:19;;;;;;;8.32;5.80;;;;;;;;;;5111355;28;20020;-71
2022/07/03 02:14:54;;;;;;;10.60;6.47;;;;;;;;;;5110894;28;20016;-71
2022/07/03 02:17:21;;;;;;;8.88;6.20;;;;;;;;;;5111611;28;20073;-71
2022/07/03 02:21:00;;;;;;;8.57;6.80;;;;;;;;;;5112020;27;20401;-71
2022/07/03 02:23:29;;;;;;;11.82;7.07;;;;;;;;;;5111070;28;20031;-71
2022/07/03 02:25:58;;;;;;;9.95;7.32;;;;;;;;;;5111301;28;20035;-71
2022/07/03 02:29:01;;;;;;;10.25;6.65;;;;;;;;;;5111232;27;20961;-71
2022/07/03 02:31:28;;;;;;;9.95;6.93;;;;;;;;;;5110080;28;20043;-71
2022/07/03 02:33:57;;;;;;;12.30;7.45;;;;;;;;;;5110028;28;20020;-71
2022/07/03 02:38:24;;;;;;;12.23;8.48;;;;;;;;;;5112206;27;20793;-72
2022/07/03 02:41:09;;;;;;;13.23;7.93;;;;;;;;;;5111350;28;20030;-72
2022/07/03 02:43:35;;;;;;;12.45;6.68;;;;;;;;;;5110955;28;20052;-72
2022/07/03 02:49:23;;;;;;;10.35;7.25;;;;;;;;;;5111534;28;20042;-71
2022/07/03 02:54:15;;;;;;;8.77;5.50;;;;;;;;;;5112040;27;20926;-71
2022/07/03 02:57:00;;;;;;;10.30;6.68;;;;;;;;;;5110993;28;20387;-72
2022/07/03 03:01:47;;;;;;;8.38;6.15;;;;;;;;;;5111556;27;20423;-72
2022/07/03 03:06:02;;;;;;;9.02;6.65;;;;;;;;;;5070924;28;20484;-72
2022/07/03 03:08:49;;;;;;;9.38;6.82;;;;;;;;;;5132211;27;20197;-71
2022/07/03 03:11:29;;;;;;;14.23;7.88;;;;;;;;;;5131415;28;20034;-72
2022/07/03 03:13:59;;;;;;;11.55;7.35;;;;;;;;;;5131862;28;20023;-72
2022/07/03 03:16:26;;;;;;;12.02;8.20;;;;;;;;;;5131757;28;20055;-72
2022/07/03 03:18:52;;;;;;;11.40;7.55;;;;;;;;;;5131597;28;20091;-72
2022/07/03 03:21:19;;;;;;;12.93;8.02;;;;;;;;;;5131881;28;20034;-71
2022/07/03 03:23:49;;;;;;;11.73;7.75;;;;;;;;;;5131629;28;20028;-71
2022/07/03 03:26:19;;;;;;;11.40;7.60;;;;;;;;;;5129989;28;20471;-72
2022/07/03 03:30:57;;;;;;;10.73;7.10;;;;;;;;;;5111752;27;20481;-72
2022/07/03 03:34:13;;;;;;;9.88;7.13;;;;;;;;;;5111663;27;20908;-71
2022/07/03 03:36:40;;;;;;;11.60;8.32;;;;;;;;;;5111722;28;20028;-71
2022/07/03 03:40:03;;;;;;;12.48;8.52;;;;;;;;;;5050775;27;20417;-72
2022/07/03 03:42:29;;;;;;;12.02;7.90;;;;;;;;;;5050835;28;20044;-72
2022/07/03 03:44:56;;;;;;;13.82;9.20;;;;;;;;;;5049541;28;20113;-72
2022/07/03 03:49:23;;;;;;;13.18;7.60;;;;;;;;;;5111591;27;20477;-72
2022/07/03 03:51:49;;;;;;;12.27;8.75;;;;;;;;;;5127306;28;20127;-72
2022/07/03 03:55:12;;;;;;;11.82;9.00;;;;;;;;;;5111308;27;20316;-72
2022/07/03 03:57:38;;;;;;;12.57;7.65;;;;;;;;;;5111323;28;20020;-72
2022/07/03 04:00:05;;;;;;;10.27;7.18;;;;;;;;;;5111186;28;20447;-73
2022/07/03 04:02:50;;;;;;;10.43;7.32;;;;;;;;;;5111567;27;20438;-72
2022/07/03 04:05:17;;;;;;;10.75;7.38;;;;;;;;;;5110003;28;20020;-72
2022/07/03 04:09:39;;;;;;;10.93;5.95;;;;;;;;;;5111897;27;20408;-72
2022/07/03 04:12:05;;;;;;;9.95;6.75;;;;;;;;;;5110150;28;20027;-72
2022/07/03 04:15:00;;;;;;;8.23;5.13;;;;;;;;;;5111379;27;20397;-72
2022/07/03 04:17:26;;;;;;;7.75;5.65;;;;;;;;;;5111382;28;20126;-72
2022/07/03 04:19:52;;;;;;;7.72;5.57;;;;;;;;;;5111401;28;20387;-72
2022/07/03 04:24:49;;;;;;;9.25;6.68;;;;;;;;;;5173726;27;20112;-72
2022/07/03 04:28:23;;;;;;;10.93;5.25;;;;;;;;;;5111216;27;20941;-72
2022/07/03 04:30:49;;;;;;;9.50;5.90;;;;;;;;;;5111554;28;20376;-72
2022/07/03 04:33:15;;;;;;;8.18;5.35;;;;;;;;;;5110056;28;20050;-72
2022/07/03 04:35:41;;;;;;;9.75;6.00;;;;;;;;;;5110884;28;20034;-72
2022/07/03 04:38:08;;;;;;;8.43;5.43;;;;;;;;;;5109914;28;20023;-72
2022/07/03 04:40:34;;;;;;;11.38;5.43;;;;;;;;;;5111269;28;20028;-72
2022/07/03 04:43:00;;;;;;;8.68;5.90;;;;;;;;;;5110768;28;20016;-72
2022/07/03 04:46:11;;;;;;;10.77;5.75;;;;;;;;;;5111770;27;20825;-72
2022/07/03 04:48:37;;;;;;;10.63;6.80;;;;;;;;;;5111263;28;20027;-73
2022/07/03 04:54:24;;;;;;;10.68;6.13;;;;;;;;;;5111917;27;20426;-72
2022/07/03 04:56:50;;;;;;;12.10;6.20;;;;;;;;;;5110919;28;20159;-72
2022/07/03 04:59:16;;;;;;;13.30;7.63;;;;;;;;;;5111285;28;20429;-72
2022/07/03 05:01:42;;;;;;;12.57;7.25;;;;;;;;;;5111235;28;20023;-73
2022/07/03 05:04:08;;;;;;;11.15;8.38;;;;;;;;;;5111033;28;20468;-72
2022/07/03 05:06:34;;;;;;;13.40;8.50;;;;;;;;;;5111164;28;20035;-72
2022/07/03 05:09:00;;;;;;;13.02;9.15;;;;;;;;;;5109912;28;20440;-72
2022/07/03 05:11:27;;;;;;;14.15;10.23;;;;;;;;;;5110671;28;20028;-72
2022/07/03 05:13:53;;;;;;;12.68;9.68;;;;;;;;;;5110917;28;20039;-72
2022/07/03 05:16:19;;;;;;;13.00;9.63;;;;;;;;;;5111057;28;20020;-72
2022/07/03 05:18:45;;;;;;;14.43;10.38;;;;;;;;;;5109257;28;20062;-72
2022/07/03 05:23:07;;;;;;;18.33;10.63;;;;;;;;;;5111409;27;20400;-72
2022/07/03 05:25:34;;;;;;;13.43;10.10;;;;;;;;;;5111055;28;20447;-72
2022/07/03 05:28:01;;;;;;;17.55;10.93;;;;;;;;;;5111354;28;20537;-72
2022/07/03 05:30:27;;;;;;;14.23;8.95;;;;;;;;;;5110035;28;20032;-72
2022/07/03 05:32:54;;;;;;;13.63;9.98;;;;;;;;;;5109523;28;20475;-72
2022/07/03 05:36:26;;;;;;;14.63;10.30;;;;;;;;;;5112106;27;20941;-72
2022/07/03 05:42:01;;;;;;;13.55;9.35;;;;;;;;;;5112219;27;20455;-72
2022/07/03 05:44:28;;;;;;;14.90;9.30;;;;;;;;;;5111346;28;20426;-73
2022/07/03 05:46:54;;;;;;;12.68;9.05;;;;;;;;;;5110870;28;20102;-72
2022/07/03 05:49:20;;;;;;;12.80;8.18;;;;;;;;;;5111418;28;20016;-72
2022/07/03 05:51:46;;;;;;;12.50;9.50;;;;;;;;;;5111155;28;20024;-72
2022/07/03 05:54:12;;;;;;;13.18;8.52;;;;;;;;;;5110864;28;20031;-72
2022/07/03 05:56:38;;;;;;;10.82;8.32;;;;;;;;;;5127227;28;20443;-72
2022/07/03 05:59:04;;;;;;;10.85;7.68;;;;;;;;;;5111013;28;20055;-72
2022/07/03 06:01:31;;;;;;;11.77;8.05;;;;;;;;;;5110509;28;20039;-72
2022/07/03 06:03:57;;;;;;;10.95;7.95;;;;;;;;;;5111059;28;20041;-72
2022/07/03 06:06:23;;;;;;;11.50;7.78;;;;;;;;;;5110837;28;20051;-72
2022/07/03 06:09:50;;;;;;;9.82;7.25;;;;;;;;;;5111905;27;20435;-72
2022/07/03 06:12:26;;;;;;;12.05;7.85;;;;;;;;;;5111926;27;20477;-71
2022/07/03 06:14:52;;;;;;;13.77;8.88;;;;;;;;;;5126772;28;20020;-72
2022/07/03 06:17:18;;;;;;;9.40;7.13;;;;;;;;;;5127103;28;20111;-72
2022/07/03 06:19:44;;;;;;;9.02;6.40;;;;;;;;;;5111290;28;20051;-72
2022/07/03 06:22:10;;;;;;;9.38;6.47;;;;;;;;;;5110730;28;20024;-71
2022/07/03 06:26:15;;;;;;;9.88;6.13;;;;;;;;;;5111344;27;20393;-72
2022/07/03 06:28:41;;;;;;;8.40;6.35;;;;;;;;;;5109748;28;20032;-72
2022/07/03 06:31:08;;;;;;;10.38;6.60;;;;;;;;;;5111476;28;20365;-72
2022/07/03 06:33:34;;;;;;;11.75;7.25;;;;;;;;;;5111291;28;20027;-72
2022/07/03 06:36:00;;;;;;;8.90;5.78;;;;;;;;;;5110844;28;20059;-72
2022/07/03 06:38:26;;;;;;;8.30;6.32;;;;;;;;;;5111475;28;20024;-72
2022/07/03 06:42:36;;;;;;;9.30;6.25;;;;;;;;;;5111224;27;20446;-72
2022/07/03 06:46:24;;;;;;;10.07;6.97;;;;;;;;;;5111798;27;20771;-71
2022/07/03 06:48:50;;;;;;;11.20;7.35;;;;;;;;;;5110956;28;20395;-72
2022/07/03 06:51:16;;;;;;;10.73;7.30;;;;;;;;;;5111286;28;20020;-71
2022/07/03 06:53:42;;;;;;;9.68;6.65;;;;;;;;;;5111177;28;20077;-71
2022/07/03 06:56:08;;;;;;;9.45;6.68;;;;;;;;;;5110917;28;20422;-72
2022/07/03 06:58:34;;;;;;;10.60;7.78;;;;;;;;;;5111314;28;20085;-72
2022/07/03 07:01:00;;;;;;;10.50;7.05;;;;;;;;;;5111254;28;20020;-72
2022/07/03 07:03:26;;;;;;;11.27;8.10;;;;;;;;;;5109299;28;20024;-72
2022/07/03 07:07:00;;;;;;;11.35;7.35;;;;;;;;;;5111942;27;20445;-73
2022/07/03 07:09:27;;;;;;;12.02;7.97;;;;;;;;;;5111591;28;20031;-72
2022/07/03 07:11:53;;;;;;;12.02;7.43;;;;;;;;;;5109648;28;20024;-72
2022/07/03 07:14:19;;;;;;;8.93;7.43;;;;;;;;;;5111282;28;20024;-72
2022/07/03 07:16:45;;;;;;;12.50;7.40;;;;;;;;;;5110768;28;20094;-72
2022/07/03 07:19:11;;;;;;;9.88;7.55;;;;;;;;;;5111116;28;20098;-72
2022/07/03 07:21:37;;;;;;;10.77;7.32;;;;;;;;;;5111579;28;20024;-72
2022/07/03 07:25:18;;;;;;;11.23;7.22;;;;;;;;;;5111057;27;20428;-72
2022/07/03 07:27:44;;;;;;;10.32;7.50;;;;;;;;;;5127085;28;20024;-72
2022/07/03 07:30:10;;;;;;;10.45;7.80;;;;;;;;;;5112105;28;20055;-72
2022/07/03 07:32:37;;;;;;;13.63;7.90;;;;;;;;;;5110865;28;20073;-73
2022/07/03 07:35:03;;;;;;;11.18;7.60;;;;;;;;;;5111206;28;20499;-73
2022/07/03 07:37:29;;;;;;;10.60;8.00;;;;;;;;;;5111167;28;20103;-73
2022/07/03 07:39:56;;;;;;;11.77;8.23;;;;;;;;;;5110572;28;20416;-73
2022/07/03 07:42:24;;;;;;;8.90;6.95;;;;;;;;;;5110984;28;20024;-73
2022/07/03 07:44:50;;;;;;;11.25;7.68;;;;;;;;;;5110498;28;20115;-73
2022/07/03 07:47:16;;;;;;;9.25;6.63;;;;;;;;;;5111082;28;20488;-73
2022/07/03 07:49:42;;;;;;;12.43;7.22;;;;;;;;;;5110803;28;20028;-73
2022/07/03 07:53:40;;;;;;;11.50;7.57;;;;;;;;;;5111023;27;20388;-72
2022/07/03 07:56:06;;;;;;;10.98;6.80;;;;;;;;;;5111334;28;20020;-72
2022/07/03 07:58:32;;;;;;;10.13;7.35;;;;;;;;;;5109966;28;20475;-72
2022/07/03 08:06:28;;;;;;;10.05;6.32;;;;;;;;;;5110721;28;20058;-72
2022/07/03 08:08:54;;;;;;;10.68;7.15;;;;;;;;;;5111070;28;20531;-73
2022/07/03 08:11:20;;;;;;;9.95;7.05;;;;;;;;;;5111005;28;20027;-73
2022/07/03 08:14:04;;;;;;;9.52;6.65;;;;;;;;;;5111281;27;20446;-72
2022/07/03 08:16:31;;;;;;;9.05;6.60;;;;;;;;;;5111340;28;20028;-72
2022/07/03 08:18:57;;;;;;;9.18;6.55;;;;;;;;;;5111261;28;20028;-72
2022/07/03 08:21:23;;;;;;;10.20;6.90;;;;;;;;;;5110902;28;20492;-72
2022/07/03 08:23:49;;;;;;;9.10;6.22;;;;;;;;;;5111274;28;20016;-72
2022/07/03 08:26:16;;;;;;;8.02;5.70;;;;;;;;;;5111117;28;20054;-72
2022/07/03 08:28:42;;;;;;;9.35;6.28;;;;;;;;;;5110924;28;20028;-72
2022/07/03 08:31:08;;;;;;;9.52;6.45;;;;;;;;;;5109865;28;20024;-73
2022/07/03 08:33:34;;;;;;;9.55;6.35;;;;;;;;;;5109686;28;20028;-72
2022/07/03 08:36:00;;;;;;;8.82;5.65;;;;;;;;;;5110569;28;20024;-73
2022/07/03 08:38:29;;;;;;;8.07;5.40;;;;;;;;;;5110925;28;20140;-73
2022/07/03 08:40:56;;;;;;;7.97;5.68;;;;;;;;;;5110977;28;20054;-73
2022/07/03 08:43:23;;;;;;;7.30;5.15;;;;;;;;;;5110337;28;20028;-72
2022/07/03 08:45:49;;;;;;;11.48;5.70;;;;;;;;;;5109536;28;20028;-73
2022/07/03 08:48:17;;;;;;;8.40;5.88;;;;;;;;;;5109112;28;20387;-72
2022/07/03 08:50:43;;;;;;;9.48;6.22;;;;;;;;;;5109467;28;20059;-72
2022/07/03 08:53:11;;;;;;;9.57;6.82;;;;;;;;;;5109331;28;20058;-72
2022/07/03 08:55:37;;;;;;;10.07;6.15;;;;;;;;;;5108995;28;20020;-73
2022/07/03 08:58:05;;;;;;;8.20;5.75;;;;;;;;;;5110568;28;20023;-72
2022/07/03 09:00:32;;;;;;;8.50;4.85;;;;;;;;;;5109184;28;20073;-73
2022/07/03 09:03:00;;;;;;;7.80;5.00;;;;;;;;;;5110093;28;20103;-73
2022/07/03 09:05:26;;;;;;;9.77;5.70;;;;;;;;;;5110461;28;20031;-73
2022/07/03 09:07:53;;;;;;;8.27;5.13;;;;;;;;;;5110516;28;20023;-73
2022/07/03 09:10:19;;;;;;;10.45;5.38;;;;;;;;;;5109878;28;20031;-73
2022/07/03 09:12:47;;;;;;;7.78;5.32;;;;;;;;;;5108713;28;20127;-73
2022/07/03 09:15:13;;;;;;;8.43;5.35;;;;;;;;;;5110238;28;20421;-72
2022/07/03 09:17:40;;;;;;;8.10;5.30;;;;;;;;;;5108375;28;20027;-73
2022/07/03 09:20:07;;;;;;;9.93;5.32;;;;;;;;;;5110072;28;20027;-73
2022/07/03 09:22:34;;;;;;;8.32;6.05;;;;;;;;;;5110092;28;20499;-73
2022/07/03 09:25:05;;;;;;;8.82;5.70;;;;;;;;;;5098166;28;20099;-73
2022/07/03 09:27:31;;;;;;;10.07;5.68;;;;;;;;;;5096427;28;20020;-73
2022/07/03 09:29:58;;;;;;;7.90;5.65;;;;;;;;;;5096360;28;20101;-73
2022/07/03 09:32:24;;;;;;;11.38;5.10;;;;;;;;;;5094575;28;20115;-73
2022/07/03 09:34:59;;;;;;;7.55;5.28;;;;;;;;;;5096260;28;20032;-73
2022/07/03 09:37:29;;;;;;;10.70;5.13;;;;;;;;;;5095816;28;20023;-73
2022/07/03 09:39:58;;;;;;;8.23;5.15;;;;;;;;;;5096121;28;20020;-74
2022/07/03 09:42:25;;;;;;;8.45;5.80;;;;;;;;;;5094819;28;20081;-73
2022/07/03 09:44:54;;;;;;;7.82;5.20;;;;;;;;;;5095766;28;20051;-73
2022/07/03 09:47:24;;;;;;;9.27;5.28;;;;;;;;;;5096137;28;20023;-73
2022/07/03 09:49:54;;;;;;;8.55;5.20;;;;;;;;;;5096017;28;20030;-73
2022/07/03 09:52:28;;;;;;;8.05;4.95;;;;;;;;;;5095576;28;20468;-73
2022/07/03 09:54:55;;;;;;;6.93;5.15;;;;;;;;;;5095927;28;20032;-73
2022/07/03 09:57:22;;;;;;;6.95;4.82;;;;;;;;;;5096452;28;20044;-73
2022/07/03 09:59:49;;;;;;;7.30;5.22;;;;;;;;;;5095365;28;20024;-73
2022/07/03 10:02:15;;;;;;;6.90;5.13;;;;;;;;;;5094514;28;20020;-73
2022/07/03 10:04:41;;;;;;;9.23;5.28;;;;;;;;;;5096318;28;20035;-73
2022/07/03 10:07:07;;;;;;;7.05;4.90;;;;;;;;;;5095291;28;20024;-73
2022/07/03 10:09:34;;;;;;;8.05;5.22;;;;;;;;;;5095680;28;20032;-72
2022/07/03 10:12:01;;;;;;;8.20;4.45;;;;;;;;;;5095385;28;20075;-72
2022/07/03 10:14:31;;;;;;;7.22;5.43;;;;;;;;;;5095316;28;20507;-72
2022/07/03 10:16:58;;;;;;;7.20;4.82;;;;;;;;;;5095549;28;20020;-73
2022/07/03 10:19:27;;;;;;;7.43;5.40;;;;;;;;;;5095448;28;20023;-73
2022/07/03 10:21:54;;;;;;;6.85;4.70;;;;;;;;;;5095037;28;20031;-73
2022/07/03 10:24:24;;;;;;;5.45;4.50;;;;;;;;;;5094398;28;20028;-72
2022/07/03 10:26:51;;;;;;;7.38;5.15;;;;;;;;;;5094982;28;20035;-72
2022/07/03 10:29:17;;;;;;;6.50;4.50;;;;;;;;;;5095354;28;20039;-72
2022/07/03 10:31:47;;;;;;;7.07;4.97;;;;;;;;;;5095084;28;20024;-72
2022/07/03 10:34:22;;;;;;;7.57;5.53;;;;;;;;;;5094751;28;20077;-72
2022/07/03 10:36:51;;;;;;;6.40;4.78;;;;;;;;;;5092958;28;20027;-73
2022/07/03 10:39:37;;;;;;;8.18;4.70;;;;;;;;;;5094989;28;20031;-73
2022/07/03 10:45:08;;;;;;;6.20;4.85;;;;;;;;;;5095231;28;20470;-73
2022/07/03 10:47:41;;;;;;;7.20;4.95;;;;;;;;;;5095025;28;20031;-73
2022/07/03 10:50:11;;;;;;;9.38;5.18;;;;;;;;;;5094852;28;20038;-74
2022/07/03 10:52:38;;;;;;;6.70;4.75;;;;;;;;;;5094954;28;20038;-73
2022/07/03 10:55:06;;;;;;;8.18;5.05;;;;;;;;;;5094304;28;20047;-73
2022/07/03 10:57:33;;;;;;;11.10;5.05;;;;;;;;;;5094737;28;20017;-73
2022/07/03 11:00:00;;;;;;;6.57;4.60;;;;;;;;;;5094657;28;20099;-73
2022/07/03 11:02:27;;;;;;;5.60;3.85;;;;;;;;;;5092892;28;20438;-73
2022/07/03 11:05:02;;;;;;;6.03;4.40;;;;;;;;;;5094670;28;20054;-73
2022/07/03 11:07:31;;;;;;;9.57;4.45;;;;;;;;;;5094667;28;20020;-73
2022/07/03 11:10:06;;;;;;;6.65;4.35;;;;;;;;;;5094414;28;20020;-73
2022/07/03 11:12:51;;;;;;;6.03;4.10;;;;;;;;;;5092838;28;20135;-73
2022/07/03 11:15:29;;;;;;;7.00;4.28;;;;;;;;;;5094300;28;20094;-73
2022/07/03 11:18:10;;;;;;;6.75;4.28;;;;;;;;;;5092649;28;20053;-73
2022/07/03 11:20:42;;;;;;;6.13;4.90;;;;;;;;;;5094263;28;20417;-73
2022/07/03 11:23:24;;;;;;;6.35;4.07;;;;;;;;;;5094026;28;20032;-74
2022/07/03 11:25:51;;;;;;;6.40;4.45;;;;;;;;;;5094424;28;20035;-75
2022/07/03 11:28:32;;;;;;;7.10;4.70;;;;;;;;;;5093962;28;20024;-73
2022/07/03 11:31:13;;;;;;;6.93;4.60;;;;;;;;;;5093970;28;20380;-74
2022/07/03 11:33:43;;;;;;;5.90;4.38;;;;;;;;;;5094630;28;20043;-75
2022/07/03 11:36:25;;;;;;;6.13;4.35;;;;;;;;;;5092851;28;20016;-75
2022/07/03 11:39:00;;;;;;;7.55;4.38;;;;;;;;;;5093698;28;20073;-74
2022/07/03 11:41:26;;;;;;;5.00;3.53;;;;;;;;;;5093975;28;20357;-74
2022/07/03 11:43:54;;;;;;;5.88;4.07;;;;;;;;;;5093950;28;20028;-74
2022/07/03 11:46:24;;;;;;;5.60;3.97;;;;;;;;;;5093808;28;20036;-74
2022/07/03 11:48:51;;;;;;;7.20;4.18;;;;;;;;;;5094375;28;20109;-74
2022/07/03 11:51:17;;;;;;;7.40;4.63;;;;;;;;;;5093465;28;20106;-74
2022/07/03 11:53:43;;;;;;;6.68;4.03;;;;;;;;;;5093657;28;20047;-74
2022/07/03 11:56:09;;;;;;;6.03;4.03;;;;;;;;;;5093872;28;20031;-74
2022/07/03 11:58:48;;;;;;;5.82;4.00;;;;;;;;;;5093233;28;20103;-74
2022/07/03 12:01:27;;;;;;;8.50;3.92;;;;;;;;;;5093675;28;20054;-75
2022/07/03 12:03:54;;;;;;;6.45;4.32;;;;;;;;;;5093919;28;20128;-74
2022/07/03 12:06:21;;;;;;;6.57;4.13;;;;;;;;;;5093203;28;20028;-74
2022/07/03 12:08:48;;;;;;;9.18;4.13;;;;;;;;;;5093504;28;20038;-74
2022/07/03 12:11:15;;;;;;;5.90;4.10;;;;;;;;;;5093502;28;20077;-72
2022/07/03 12:13:42;;;;;;;5.85;4.07;;;;;;;;;;5093047;28;20048;-73
2022/07/03 12:16:13;;;;;;;5.88;4.18;;;;;;;;;;5093539;28;20024;-74
2022/07/03 12:18:46;;;;;;;7.60;4.70;;;;;;;;;;5093497;28;20025;-72
2022/07/03 12:21:12;;;;;;;6.72;4.25;;;;;;;;;;5093107;28;20051;-73
2022/07/03 12:23:46;;;;;;;6.07;4.03;;;;;;;;;;5093383;28;20046;-74
2022/07/03 12:26:12;;;;;;;6.47;4.22;;;;;;;;;;5093366;28;20025;-73
2022/07/03 12:28:39;;;;;;;7.15;4.50;;;;;;;;;;5093399;28;20028;-73
2022/07/03 12:31:05;;;;;;;7.53;4.32;;;;;;;;;;5093649;28;20055;-73
2022/07/03 12:33:37;;;;;;;5.82;3.75;;;;;;;;;;5091676;28;20036;-73
2022/07/03 12:36:04;;;;;;;7.10;4.20;;;;;;;;;;5093322;28;20472;-74
2022/07/03 12:38:30;;;;;;;6.68;3.90;;;;;;;;;;5091968;28;20032;-73
2022/07/03 12:41:06;;;;;;;7.03;4.63;;;;;;;;;;5093163;28;20055;-73
2022/07/03 12:43:39;;;;;;;5.75;3.88;;;;;;;;;;5093532;28;20427;-73
2022/07/03 12:46:18;;;;;;;6.28;4.18;;;;;;;;;;5093173;28;20404;-73
2022/07/03 12:48:51;;;;;;;6.20;4.13;;;;;;;;;;5092748;28;20073;-74
2022/07/03 12:51:37;;;;;;;7.78;4.55;;;;;;;;;;5093247;28;20024;-73
2022/07/03 12:54:03;;;;;;;6.90;4.05;;;;;;;;;;5093165;28;20400;-73
2022/07/03 12:56:29;;;;;;;5.78;3.38;;;;;;;;;;5092765;28;20503;-72
2022/07/03 13:01:40;;;;;;;8.40;4.47;;;;;;;;;;5096790;28;20078;-72
2022/07/03 13:04:08;;;;;;;7.85;4.78;;;;;;;;;;5096940;28;20471;-74
2022/07/03 13:06:34;;;;;;;9.88;5.57;;;;;;;;;;5096815;28;20044;-73
2022/07/03 13:09:01;;;;;;;7.03;5.00;;;;;;;;;;5096477;28;20121;-72
2022/07/03 13:11:31;;;;;;;14.98;8.60;;;;;;;;;;5096840;28;20027;-72
2022/07/03 13:14:05;;;;;;;14.57;7.20;;;;;;;;;;5096509;28;20048;-72
2022/07/03 13:16:35;;;;;;;9.52;6.60;;;;;;;;;;5096287;28;20053;-73
2022/07/03 13:19:02;;;;;;;8.18;5.18;;;;;;;;;;5096899;28;20495;-74
2022/07/03 13:21:29;;;;;;;6.80;4.03;;;;;;;;;;5096768;28;20024;-73
2022/07/03 13:23:56;;;;;;;8.50;4.70;;;;;;;;;;5096082;28;20490;-74
2022/07/03 13:26:22;;;;;;;8.20;5.68;;;;;;;;;;5096722;28;20024;-74
2022/07/03 13:28:48;;;;;;;8.23;5.28;;;;;;;;;;5096702;28;20016;-73
2022/07/03 13:31:15;;;;;;;8.13;5.15;;;;;;;;;;5094717;28;20057;-74
2022/07/03 13:33:41;;;;;;;8.48;5.35;;;;;;;;;;5096305;28;20043;-74
2022/07/03 13:36:07;;;;;;;10.05;6.80;;;;;;;;;;5096402;28;20016;-74
2022/07/03 13:38:33;;;;;;;12.93;8.23;;;;;;;;;;5095873;28;20028;-74
2022/07/03 13:40:59;;;;;;;12.25;7.00;;;;;;;;;;5096497;28;20380;-73
2022/07/03 13:43:25;;;;;;;10.60;5.93;;;;;;;;;;5096206;28;20492;-74
2022/07/03 13:45:51;;;;;;;8.40;4.68;;;;;;;;;;5095911;28;20145;-73
2022/07/03 13:48:17;;;;;;;5.22;4.05;;;;;;;;;;5094773;28;20476;-73
2022/07/03 13:50:46;;;;;;;6.35;3.95;;;;;;;;;;5095834;28;20035;-72
2022/07/03 13:53:12;;;;;;;7.38;4.18;;;;;;;;;;5095871;28;20109;-72
2022/07/03 13:55:40;;;;;;;5.63;4.05;;;;;;;;;;5096167;28;20073;-72
2022/07/03 13:58:07;;;;;;;6.47;4.35;;;;;;;;;;5094507;28;20123;-73
2022/07/03 14:00:34;;;;;;;7.18;5.15;;;;;;;;;;5095882;28;20081;-73
2022/07/03 14:03:00;;;;;;;7.28;4.82;;;;;;;;;;5095820;28;20436;-73
2022/07/03 14:05:26;;;;;;;9.70;6.68;;;;;;;;;;5095422;28;20023;-73
2022/07/03 14:07:54;;;;;;;11.00;6.50;;;;;;;;;;5095740;28;20047;-73
2022/07/03 14:10:21;;;;;;;8.07;5.40;;;;;;;;;;5095602;28;20066;-73
2022/07/03 14:12:48;;;;;;;8.38;5.85;;;;;;;;;;5095153;28;20470;-72
2022/07/03 14:15:14;;;;;;;8.70;5.93;;;;;;;;;;5095557;28;20031;-74
2022/07/03 14:17:43;;;;;;;7.05;4.65;;;;;;;;;;5094209;28;20024;-74
2022/07/03 14:20:09;;;;;;;6.55;4.43;;;;;;;;;;5095095;28;20016;-72
2022/07/03 14:22:35;;;;;;;8.80;4.22;;;;;;;;;;5094088;28;20484;-72
2022/07/03 14:25:02;;;;;;;7.22;4.18;;;;;;;;;;5095453;28;20377;-72
2022/07/03 14:32:57;;;;;;;6.30;3.83;;;;;;;;;;5094930;28;20071;-73
2022/07/03 14:35:24;;;;;;;6.25;3.97;;;;;;;;;;5095554;28;20017;-72
2022/07/03 14:37:50;;;;;;;6.60;3.42;;;;;;;;;;5095397;28;20028;-72
2022/07/03 14:40:16;;;;;;;5.55;3.95;;;;;;;;;;5094921;28;20055;-73
2022/07/03 14:42:42;;;;;;;6.07;3.92;;;;;;;;;;5095006;28;20539;-73
2022/07/03 14:45:09;;;;;;;6.03;3.67;;;;;;;;;;5093713;28;20064;-73
2022/07/03 14:47:35;;;;;;;6.18;3.70;;;;;;;;;;5093220;28;20476;-72
2022/07/03 14:50:01;;;;;;;6.15;4.30;;;;;;;;;;5094888;28;20098;-73
2022/07/03 14:52:28;;;;;;;6.85;4.15;;;;;;;;;;5094779;28;20460;-73
2022/07/03 14:54:56;;;;;;;6.82;4.00;;;;;;;;;;5093138;28;20028;-72
2022/07/03 14:57:38;;;;;;;5.88;4.20;;;;;;;;;;5094844;28;20019;-73
2022/07/03 15:00:06;;;;;;;7.13;4.97;;;;;;;;;;5094896;28;20383;-73
2022/07/03 15:02:59;;;;;;;7.47;5.05;;;;;;;;;;5094378;28;20403;-73
2022/07/03 15:05:28;;;;;;;7.25;5.05;;;;;;;;;;5086463;28;20040;-73
2022/07/03 15:07:54;;;;;;;6.63;4.93;;;;;;;;;;5094123;28;20067;-73
2022/07/03 15:10:20;;;;;;;6.88;5.65;;;;;;;;;;5094529;28;20030;-73
2022/07/03 15:12:48;;;;;;;7.75;5.05;;;;;;;;;;5094161;28;20048;-73
2022/07/03 15:15:15;;;;;;;7.43;5.25;;;;;;;;;;5094028;28;20020;-73
2022/07/03 15:17:42;;;;;;;8.18;4.93;;;;;;;;;;5094425;28;20074;-73
2022/07/03 15:20:11;;;;;;;7.82;4.80;;;;;;;;;;5094358;28;20091;-73
2022/07/03 15:22:42;;;;;;;7.32;5.03;;;;;;;;;;5093611;28;20099;-73
2022/07/03 15:25:09;;;;;;;9.13;4.57;;;;;;;;;;5094325;28;20023;-73
2022/07/03 15:27:35;;;;;;;5.90;4.20;;;;;;;;;;5094223;28;20028;-73
2022/07/03 15:30:02;;;;;;;6.07;4.32;;;;;;;;;;5093702;28;20034;-73
2022/07/03 15:32:28;;;;;;;7.82;4.50;;;;;;;;;;5094008;28;20024;-73
2022/07/03 15:34:54;;;;;;;7.07;4.13;;;;;;;;;;5094654;28;20100;-73
2022/07/03 15:37:43;;;;;;;7.05;4.60;;;;;;;;;;5093778;28;20103;-73
2022/07/03 15:40:17;;;;;;;5.53;4.03;;;;;;;;;;5090994;28;20047;-74
2022/07/03 15:42:55;;;;;;;5.82;4.18;;;;;;;;;;5094054;28;20364;-74
2022/07/03 15:45:42;;;;;;;6.22;4.30;;;;;;;;;;5092283;28;20028;-74
2022/07/03 15:48:18;;;;;;;6.80;4.63;;;;;;;;;;5093995;28;20028;-74
2022/07/03 15:50:51;;;;;;;6.35;4.47;;;;;;;;;;5092235;28;20030;-74
2022/07/03 15:53:19;;;;;;;6.03;4.10;;;;;;;;;;5093765;28;20048;-74
2022/07/03 15:55:47;;;;;;;7.55;4.88;;;;;;;;;;5094017;28;20020;-73
2022/07/03 15:58:14;;;;;;;8.45;4.22;;;;;;;;;;5091986;28;20340;-73
2022/07/03 16:00:41;;;;;;;8.00;4.82;;;;;;;;;;5093747;28;20032;-74
2022/07/03 16:03:11;;;;;;;6.18;4.43;;;;;;;;;;5093633;28;20031;-73
2022/07/03 16:05:37;;;;;;;7.18;4.80;;;;;;;;;;5093256;28;20024;-74
2022/07/03 16:08:06;;;;;;;5.10;3.90;;;;;;;;;;5092528;28;20054;-73
2022/07/03 16:10:32;;;;;;;6.50;4.40;;;;;;;;;;5093590;28;20024;-73
2022/07/03 16:13:00;;;;;;;6.15;4.15;;;;;;;;;;5091600;28;20123;-73